Decoded Metar for KGSO (GREENSBORO in NC, USA) (IATA:GSO) | Meteo·Mobile Aviation Weather
aviador You're here:

KGSO Decoded Metar

GREENSBORO in NC, USA
Report Time2018-11-17 20:54:00
UTC Time2018-11-17 21:31:08
Flight Rules vfr VFR
WindCalm
Visibility9999 m
Phenomena:N/A
Clouds:N/A
Expected CloudBase > 5,200 ft AGL from Temp-Dew spread
CeilingNone
Temp14°C (ISA +1)
Dew Point01°C (41% RH)
AAT12.2°C
QNH1023 hPa
Density Alt755 ft
Elevation902 ft
Report Wrong Elevation
Raw Report
KGSO 172054Z 00000KT 10SM CLR 14/01 A3021 RMK AO2 SLP230 T01440011
55006=

Extra information for KGSO:More info

Metar Taf Metar & Taf Last 4 Metars F.Rules Stats Wind Profile Meteogram Temp Stats Airport Information Weather charts Add Link Nearby VenuesMetar ALERT Operation Metar Decoded Social comments

AIRNAV info for KGSO